Time;durP1;ratioP1;P1;durP2;ratioP2;P2;SDS_P1;SDS_P2;PMS_P1;PMS_P2;Temp;Humidity;BMP_temperature;BMP_pressure;BME280_temperature;BME280_humidity;BME280_pressure;Samples;Min_cycle;Max_cycle;Signal;HPM_P1;HPM_P2
2024/04/01 00:00:05;;;;;;;36.83;6.88;;;17.90;63.80;;;;;;4178427;28;20094;-56
2024/04/01 00:02:06;;;;;;;31.75;5.63;;;17.90;63.70;;;;;;4180013;28;20025;-58
2024/04/01 00:04:07;;;;;;;36.03;5.72;;;17.90;63.70;;;;;;4178368;28;20049;-58
2024/04/01 00:06:09;;;;;;;29.52;5.47;;;17.90;63.70;;;;;;4179586;28;20033;-55
2024/04/01 00:08:10;;;;;;;36.58;5.55;;;18.00;63.70;;;;;;4178795;28;20029;-59
2024/04/01 00:10:11;;;;;;;39.25;5.75;;;17.90;63.60;;;;;;4179082;28;20045;-59
2024/04/01 00:12:13;;;;;;;30.85;6.20;;;18.00;63.00;;;;;;4179460;28;20051;-59
2024/04/01 00:14:14;;;;;;;38.78;5.65;;;18.20;62.30;;;;;;4178935;28;20041;-57
2024/04/01 00:16:16;;;;;;;28.65;5.43;;;18.40;61.80;;;;;;4177766;28;20037;-58
2024/04/01 00:18:17;;;;;;;37.22;5.15;;;18.50;61.60;;;;;;4177996;28;20029;-56
2024/04/01 00:20:18;;;;;;;23.73;5.05;;;18.60;61.50;;;;;;4179453;28;20045;-57
2024/04/01 00:22:20;;;;;;;33.75;6.20;;;18.60;61.50;;;;;;4177960;28;20461;-59
2024/04/01 00:24:21;;;;;;;43.53;6.32;;;18.60;62.00;;;;;;4178322;28;20052;-59
2024/04/01 00:26:23;;;;;;;34.95;5.65;;;18.50;62.30;;;;;;4177779;28;20044;-55
2024/04/01 00:28:24;;;;;;;29.90;6.05;;;18.40;62.60;;;;;;4179485;28;20098;-59
2024/04/01 00:30:25;;;;;;;29.60;4.90;;;18.30;63.60;;;;;;4178508;28;20033;-57
2024/04/01 00:32:26;;;;;;;44.10;7.93;;;18.20;63.20;;;;;;4179030;28;20041;-58
2024/04/01 00:34:28;;;;;;;35.40;5.38;;;18.10;63.50;;;;;;4178047;28;20114;-60
2024/04/01 00:36:29;;;;;;;27.77;5.63;;;18.10;63.60;;;;;;4179104;28;20485;-58
2024/04/01 00:38:30;;;;;;;37.63;6.47;;;18.00;63.70;;;;;;4178512;28;20408;-55
2024/04/01 00:40:34;;;;;;;31.70;5.22;;;17.90;63.80;;;;;;4178590;28;20091;-54
2024/04/01 00:42:36;;;;;;;40.05;7.30;;;17.90;63.80;;;;;;4178961;28;20099;-58
2024/04/01 00:44:37;;;;;;;30.55;6.43;;;17.80;64.10;;;;;;4178363;28;20033;-54
2024/04/01 00:46:38;;;;;;;40.28;6.38;;;17.80;64.30;;;;;;4179010;28;20090;-56
2024/04/01 00:48:40;;;;;;;35.67;6.50;;;17.70;64.30;;;;;;4177681;28;20044;-58
2024/04/01 00:50:43;;;;;;;37.47;5.95;;;17.70;64.40;;;;;;4178878;28;20405;-59
2024/04/01 00:52:45;;;;;;;32.85;6.10;;;17.60;64.30;;;;;;4177911;28;20025;-58
2024/04/01 00:54:47;;;;;;;45.05;5.95;;;17.70;64.20;;;;;;4179191;28;20033;-61
2024/04/01 00:56:49;;;;;;;31.98;5.18;;;17.70;64.00;;;;;;4177850;28;20475;-59
2024/04/01 00:58:53;;;;;;;23.75;4.82;;;17.70;64.10;;;;;;4179174;28;20447;-59
2024/04/01 01:00:56;;;;;;;37.40;7.13;;;17.70;63.80;;;;;;4177824;28;20041;-55
2024/04/01 01:02:59;;;;;;;32.83;6.07;;;17.70;63.90;;;;;;4178283;28;20366;-58
2024/04/01 01:05:01;;;;;;;39.50;8.43;;;17.70;64.00;;;;;;4175867;28;20053;-59
2024/04/01 01:07:03;;;;;;;25.85;5.75;;;17.60;64.30;;;;;;4178487;28;20036;-58
2024/04/01 01:09:05;;;;;;;45.33;5.70;;;17.60;64.30;;;;;;4177533;28;20040;-57
2024/04/01 01:11:07;;;;;;;39.30;7.07;;;17.60;64.30;;;;;;4178612;28;20041;-59
2024/04/01 01:13:08;;;;;;;32.13;6.25;;;17.60;64.40;;;;;;4178524;28;20922;-53
2024/04/01 01:15:09;;;;;;;37.75;7.00;;;17.60;64.50;;;;;;4177721;28;20041;-57
2024/04/01 01:17:11;;;;;;;39.17;7.05;;;17.60;64.50;;;;;;4178529;28;20025;-57
2024/04/01 01:19:14;;;;;;;31.50;4.95;;;17.60;64.60;;;;;;4177076;28;20040;-60
2024/04/01 01:21:15;;;;;;;32.25;5.60;;;17.60;64.30;;;;;;4177937;28;20041;-58
2024/04/01 01:23:16;;;;;;;27.90;5.38;;;17.60;64.00;;;;;;4177600;28;20029;-55
2024/04/01 01:25:17;;;;;;;38.15;6.60;;;17.70;63.70;;;;;;4177883;28;20107;-57
2024/04/01 01:27:19;;;;;;;34.50;6.50;;;17.80;63.00;;;;;;4177028;28;20033;-58
2024/04/01 01:29:21;;;;;;;37.67;6.18;;;17.90;62.60;;;;;;4178589;28;20110;-57
2024/04/01 01:31:22;;;;;;;37.13;5.55;;;18.00;62.10;;;;;;4177440;28;20033;-55
2024/04/01 01:33:24;;;;;;;34.42;6.80;;;18.00;61.60;;;;;;4178439;28;20158;-57
2024/04/01 01:35:27;;;;;;;34.30;5.80;;;18.20;61.10;;;;;;4177360;28;20463;-58
2024/04/01 01:37:28;;;;;;;30.17;4.93;;;18.20;60.80;;;;;;4177420;28;20036;-56
2024/04/01 01:39:29;;;;;;;31.70;5.25;;;18.30;60.30;;;;;;4176674;28;20044;-58
2024/04/01 01:41:31;;;;;;;34.10;5.53;;;18.40;59.90;;;;;;4176941;28;20041;-58
2024/04/01 01:43:32;;;;;;;34.30;5.60;;;18.50;59.30;;;;;;4177093;28;20479;-55
2024/04/01 01:45:33;;;;;;;29.70;5.18;;;18.60;58.90;;;;;;4177543;28;20500;-55
2024/04/01 01:47:35;;;;;;;33.85;6.15;;;18.70;58.70;;;;;;4177664;28;20446;-58
2024/04/01 01:49:36;;;;;;;37.83;5.50;;;18.80;58.40;;;;;;4176789;28;20074;-56
2024/04/01 01:51:40;;;;;;;38.95;5.55;;;18.90;58.20;;;;;;4176383;28;20959;-58
2024/04/01 01:53:41;;;;;;;36.50;5.78;;;18.90;57.90;;;;;;4176878;28;20087;-58
2024/04/01 01:55:42;;;;;;;39.25;5.78;;;19.00;57.90;;;;;;4178074;28;20071;-58
2024/04/01 01:57:43;;;;;;;30.27;6.47;;;19.10;57.60;;;;;;4176761;28;20041;-57
2024/04/01 01:59:45;;;;;;;24.05;4.15;;;19.10;57.50;;;;;;4177695;28;20533;-60
2024/04/01 02:01:46;;;;;;;31.15;5.00;;;19.20;57.30;;;;;;4176360;28;20036;-57
2024/04/01 02:03:47;;;;;;;34.22;5.80;;;19.20;57.30;;;;;;4177611;28;20049;-58
2024/04/01 02:05:50;;;;;;;32.75;6.70;;;19.30;57.10;;;;;;4176616;28;20057;-58
2024/04/01 02:07:51;;;;;;;38.20;5.60;;;19.30;56.90;;;;;;4177270;28;20099;-52
2024/04/01 02:09:53;;;;;;;27.88;5.03;;;19.40;56.80;;;;;;4176851;28;20029;-56
2024/04/01 02:11:54;;;;;;;32.72;5.47;;;19.40;56.60;;;;;;4177369;28;20531;-56
2024/04/01 02:13:55;;;;;;;34.13;6.75;;;19.50;56.30;;;;;;4177375;28;20440;-58
2024/04/01 02:16:06;;;;;;;39.25;6.10;;;19.60;56.20;;;;;;4177052;28;20090;-59
2024/04/01 02:18:08;;;;;;;33.70;6.47;;;19.60;56.00;;;;;;4176813;28;20098;-60
2024/04/01 02:20:15;;;;;;;30.00;6.32;;;19.60;56.00;;;;;;4177385;28;20079;-56
2024/04/01 02:22:22;;;;;;;28.70;5.68;;;19.60;55.80;;;;;;4177157;28;20416;-59
2024/04/01 02:24:25;;;;;;;33.03;6.30;;;19.60;55.80;;;;;;4176594;28;20080;-59
2024/04/01 02:26:27;;;;;;;31.70;5.70;;;19.70;56.50;;;;;;4176798;28;20045;-58
2024/04/01 02:28:32;;;;;;;47.55;6.30;;;19.70;56.00;;;;;;4176799;28;20392;-60
2024/04/01 02:30:33;;;;;;;35.72;6.82;;;19.60;55.70;;;;;;4177474;28;20021;-57
2024/04/01 02:32:35;;;;;;;36.20;5.63;;;19.60;55.80;;;;;;4175770;28;20080;-59
2024/04/01 02:34:36;;;;;;;30.20;5.32;;;19.60;56.20;;;;;;4177141;28;20973;-58
2024/04/01 02:36:37;;;;;;;32.85;5.85;;;19.50;56.70;;;;;;4176448;28;20033;-57
2024/04/01 02:38:38;;;;;;;32.58;6.55;;;19.40;56.90;;;;;;4177576;28;20067;-61
2024/04/01 02:40:40;;;;;;;34.97;5.70;;;19.30;57.10;;;;;;4176159;28;20436;-58
2024/04/01 02:42:41;;;;;;;33.00;5.70;;;19.20;57.40;;;;;;4177785;28;20507;-59
2024/04/01 02:44:42;;;;;;;34.15;6.28;;;19.10;57.60;;;;;;4176283;28;20065;-57
2024/04/01 02:46:44;;;;;;;25.60;5.80;;;19.10;57.80;;;;;;4176765;28;20802;-60
2024/04/01 02:48:46;;;;;;;28.42;6.43;;;19.00;58.00;;;;;;4176373;28;20056;-56
2024/04/01 02:50:47;;;;;;;45.13;6.93;;;18.90;58.10;;;;;;4177378;28;21080;-59
2024/04/01 02:52:48;;;;;;;26.20;6.38;;;18.80;58.20;;;;;;4175964;28;20075;-58
2024/04/01 02:54:49;;;;;;;33.15;6.53;;;18.80;58.20;;;;;;4177130;28;20083;-58
2024/04/01 02:56:51;;;;;;;31.95;5.20;;;18.80;58.80;;;;;;4176891;28;20091;-58
2024/04/01 02:58:55;;;;;;;31.85;6.47;;;18.70;58.20;;;;;;4176627;28;20452;-58
2024/04/01 03:01:05;;;;;;;43.13;7.72;;;18.70;58.20;;;;;;4176644;28;20032;-58
2024/04/01 03:03:07;;;;;;;37.42;5.63;;;18.70;58.10;;;;;;4176464;28;20370;-58
2024/04/01 03:05:09;;;;;;;37.63;6.13;;;18.70;58.20;;;;;;4176634;28;20045;-58
2024/04/01 03:07:10;;;;;;;39.70;6.78;;;18.60;58.00;;;;;;4175691;28;20025;-55
2024/04/01 03:09:11;;;;;;;34.80;5.75;;;18.70;57.90;;;;;;4176884;28;20449;-58
2024/04/01 03:11:13;;;;;;;36.53;5.65;;;18.70;58.00;;;;;;4173901;28;20082;-58
2024/04/01 03:13:14;;;;;;;24.73;5.80;;;18.60;58.10;;;;;;4176619;28;20086;-59
2024/04/01 03:15:18;;;;;;;40.70;6.95;;;18.60;58.40;;;;;;4176147;28;20036;-57
2024/04/01 03:17:20;;;;;;;21.60;5.50;;;18.50;58.60;;;;;;4176773;28;20075;-59
2024/04/01 03:19:21;;;;;;;32.95;5.35;;;18.40;58.60;;;;;;4175340;28;20079;-57
2024/04/01 03:21:23;;;;;;;36.55;8.63;;;18.40;58.80;;;;;;4177067;28;20098;-57
2024/04/01 03:23:24;;;;;;;40.33;7.50;;;18.40;59.00;;;;;;4175866;28;20028;-59
2024/04/01 03:25:25;;;;;;;42.15;7.50;;;18.40;59.00;;;;;;4176404;28;20045;-58
2024/04/01 03:27:27;;;;;;;36.30;6.53;;;18.40;59.00;;;;;;4175844;28;20037;-59
2024/04/01 03:29:28;;;;;;;36.58;6.45;;;18.30;58.90;;;;;;4176523;28;20037;-58
2024/04/01 03:31:29;;;;;;;26.77;5.10;;;18.30;58.90;;;;;;4176016;28;20049;-58
2024/04/01 03:33:31;;;;;;;38.80;6.75;;;18.30;58.90;;;;;;4175520;28;20114;-58
2024/04/01 03:35:33;;;;;;;39.80;6.43;;;18.30;58.90;;;;;;4177051;28;20512;-58
2024/04/01 03:37:35;;;;;;;34.95;5.18;;;18.30;59.00;;;;;;4175494;28;20470;-60
2024/04/01 03:39:36;;;;;;;35.45;6.65;;;18.30;59.10;;;;;;4175785;28;20130;-59
2024/04/01 03:41:37;;;;;;;44.85;7.57;;;18.20;59.30;;;;;;4175936;28;20421;-58
2024/04/01 03:43:38;;;;;;;41.35;5.78;;;18.10;59.60;;;;;;4176004;28;20515;-60
2024/04/01 03:45:39;;;;;;;28.65;6.20;;;18.10;60.10;;;;;;4175685;28;20122;-60
2024/04/01 03:47:41;;;;;;;33.83;6.75;;;18.00;60.40;;;;;;4176599;28;20075;-58
2024/04/01 03:49:42;;;;;;;32.80;5.80;;;17.90;60.70;;;;;;4175317;28;20432;-59
2024/04/01 03:51:43;;;;;;;33.28;6.80;;;17.90;60.90;;;;;;4175161;28;20095;-55
2024/04/01 03:53:44;;;;;;;30.52;5.38;;;17.70;61.30;;;;;;4175140;28;20032;-57
2024/04/01 03:55:46;;;;;;;28.67;5.80;;;17.60;61.60;;;;;;4175226;28;20132;-60
2024/04/01 03:57:47;;;;;;;33.70;6.55;;;17.60;61.70;;;;;;4175563;28;20033;-57
2024/04/01 03:59:48;;;;;;;41.53;6.68;;;17.50;62.10;;;;;;4177977;28;20147;-56
2024/04/01 04:01:50;;;;;;;46.30;7.80;;;17.40;62.10;;;;;;4179123;28;20428;-60
2024/04/01 04:03:51;;;;;;;34.42;6.15;;;17.30;62.20;;;;;;4178744;28;20037;-60
2024/04/01 04:05:53;;;;;;;25.63;5.97;;;17.30;62.30;;;;;;4178973;28;20160;-59
2024/04/01 04:07:54;;;;;;;40.80;6.47;;;17.30;62.40;;;;;;4178333;28;20515;-60
2024/04/01 04:09:55;;;;;;;30.33;6.07;;;17.20;62.60;;;;;;4179244;28;20083;-57
2024/04/01 04:11:56;;;;;;;30.50;5.75;;;17.10;62.70;;;;;;4178528;28;20547;-60
2024/04/01 04:14:05;;;;;;;35.13;7.03;;;17.10;62.70;;;;;;4179891;28;20021;-60
2024/04/01 04:16:07;;;;;;;35.65;7.15;;;17.00;62.60;;;;;;4178031;28;20083;-61
2024/04/01 04:18:08;;;;;;;37.78;6.80;;;17.00;62.70;;;;;;4179218;28;20087;-63
2024/04/01 04:20:10;;;;;;;31.83;6.90;;;17.00;62.60;;;;;;4177754;28;20558;-59
2024/04/01 04:22:11;;;;;;;27.50;5.13;;;17.00;62.60;;;;;;4178932;28;20048;-57
2024/04/01 04:24:15;;;;;;;46.97;7.10;;;17.00;62.50;;;;;;4178121;28;20033;-58
2024/04/01 04:26:16;;;;;;;28.40;6.13;;;17.10;62.30;;;;;;4179396;28;20420;-59
2024/04/01 04:28:17;;;;;;;36.15;7.15;;;17.10;62.20;;;;;;4177961;28;20041;-57
2024/04/01 04:30:19;;;;;;;36.22;6.70;;;17.20;62.30;;;;;;4179036;28;20044;-56
2024/04/01 04:32:22;;;;;;;38.25;5.95;;;17.20;62.00;;;;;;4178271;28;20075;-55
2024/04/01 04:34:23;;;;;;;42.55;7.20;;;17.30;61.90;;;;;;4178627;28;20075;-59
2024/04/01 04:36:26;;;;;;;38.22;6.60;;;17.20;61.70;;;;;;4178454;28;20040;-55
2024/04/01 04:38:27;;;;;;;32.47;5.07;;;17.20;61.70;;;;;;4177979;28;20033;-59
2024/04/01 04:40:28;;;;;;;27.65;5.85;;;17.30;61.80;;;;;;4178495;28;20194;-57
2024/04/01 04:42:30;;;;;;;32.05;5.82;;;17.30;61.70;;;;;;4178140;28;20432;-58
2024/04/01 04:44:32;;;;;;;31.88;6.28;;;17.30;61.80;;;;;;4179320;28;20041;-57
2024/04/01 04:46:33;;;;;;;32.00;6.47;;;17.30;61.60;;;;;;4177228;28;20045;-58
2024/04/01 04:48:35;;;;;;;35.67;6.75;;;17.30;61.40;;;;;;4178622;28;20045;-60
2024/04/01 04:50:36;;;;;;;31.30;6.35;;;17.40;61.40;;;;;;4177864;28;20109;-59
2024/04/01 04:52:37;;;;;;;30.95;6.82;;;17.50;61.30;;;;;;4178942;28;20033;-57
2024/04/01 04:54:39;;;;;;;35.70;7.65;;;17.50;61.20;;;;;;4177441;28;20091;-58
2024/04/01 04:56:41;;;;;;;36.35;6.93;;;17.50;61.10;;;;;;4178938;28;20082;-55
2024/04/01 04:58:43;;;;;;;40.60;6.40;;;17.60;60.90;;;;;;4176565;28;20153;-56
2024/04/01 05:00:44;;;;;;;39.03;7.30;;;17.70;61.00;;;;;;4178912;28;20404;-58
2024/04/01 05:02:45;;;;;;;47.75;6.35;;;17.80;61.10;;;;;;4177064;28;20025;-58
2024/04/01 05:04:46;;;;;;;32.25;6.75;;;17.90;61.20;;;;;;4177741;28;20036;-54
2024/04/01 05:06:48;;;;;;;44.90;8.18;;;18.00;61.20;;;;;;4177380;28;20045;-58
2024/04/01 05:08:49;;;;;;;50.47;7.07;;;18.20;61.00;;;;;;4177721;28;20366;-54
2024/04/01 05:10:50;;;;;;;43.20;7.32;;;18.40;60.70;;;;;;4177434;28;20459;-56
2024/04/01 05:12:52;;;;;;;38.20;8.43;;;18.60;60.70;;;;;;4177819;28;20045;-57
2024/04/01 05:14:53;;;;;;;42.78;8.25;;;18.80;60.80;;;;;;4178764;28;20021;-60
2024/04/01 05:16:54;;;;;;;41.00;9.07;;;18.90;60.90;;;;;;4176955;28;20067;-55
2024/04/01 05:18:55;;;;;;;34.17;7.20;;;19.00;61.00;;;;;;4178365;28;20447;-58
2024/04/01 05:20:57;;;;;;;44.42;6.82;;;18.90;61.10;;;;;;4176941;28;20041;-59
2024/04/01 05:22:58;;;;;;;45.20;7.50;;;19.00;61.10;;;;;;4178016;28;20412;-57
2024/04/01 05:24:59;;;;;;;46.53;9.25;;;18.90;61.20;;;;;;4176970;28;20440;-59
2024/04/01 05:27:01;;;;;;;36.38;9.23;;;18.70;61.80;;;;;;4177886;28;20075;-59
2024/04/01 05:29:02;;;;;;;42.33;6.30;;;18.60;62.20;;;;;;4176769;28;20033;-62
2024/04/01 05:31:03;;;;;;;37.90;7.65;;;18.50;62.20;;;;;;4178375;28;20065;-60
2024/04/01 05:33:05;;;;;;;46.78;7.75;;;18.50;61.20;;;;;;4176641;28;20102;-58
2024/04/01 05:35:06;;;;;;;29.23;6.68;;;18.50;61.70;;;;;;4177758;28;20045;-59
2024/04/01 05:37:07;;;;;;;41.65;8.15;;;18.70;61.10;;;;;;4177391;28;20029;-59
2024/04/01 05:39:10;;;;;;;31.92;6.78;;;18.80;61.00;;;;;;4177794;28;20025;-61
2024/04/01 05:41:13;;;;;;;41.15;8.23;;;18.90;60.90;;;;;;4177705;28;20190;-59
2024/04/01 05:43:15;;;;;;;53.58;9.75;;;18.90;61.10;;;;;;4177383;28;20045;-62
2024/04/01 05:45:16;;;;;;;45.65;7.93;;;19.00;61.30;;;;;;4177552;28;20036;-59
2024/04/01 05:47:17;;;;;;;38.67;7.25;;;19.00;61.40;;;;;;4176805;28;20091;-58
2024/04/01 05:49:18;;;;;;;41.92;8.40;;;19.00;61.60;;;;;;4177207;28;20045;-59
2024/04/01 05:51:20;;;;;;;38.72;8.57;;;18.90;61.50;;;;;;4176519;28;20413;-57
2024/04/01 05:53:22;;;;;;;37.72;7.20;;;19.00;61.90;;;;;;4177836;28;20531;-59
2024/04/01 05:55:23;;;;;;;37.67;6.75;;;19.00;62.00;;;;;;4176846;28;20013;-60
2024/04/01 05:57:24;;;;;;;41.13;7.90;;;19.00;61.70;;;;;;4177882;28;20103;-60
2024/04/01 05:59:27;;;;;;;31.80;5.43;;;19.10;62.10;;;;;;4176719;28;20037;-59
2024/04/01 06:01:28;;;;;;;32.28;7.03;;;19.20;61.10;;;;;;4177513;28;20033;-59
2024/04/01 06:03:30;;;;;;;34.33;6.47;;;19.30;61.00;;;;;;4176528;28;20059;-57
2024/04/01 06:05:32;;;;;;;42.75;7.72;;;19.30;60.70;;;;;;4177362;28;20087;-60
2024/04/01 06:07:34;;;;;;;34.50;5.45;;;19.30;61.30;;;;;;4176260;28;20044;-56
2024/04/01 06:09:35;;;;;;;36.63;6.80;;;19.20;61.00;;;;;;4177059;28;20037;-60
2024/04/01 06:11:36;;;;;;;42.33;6.70;;;19.30;61.20;;;;;;4176540;28;20104;-55
2024/04/01 06:13:37;;;;;;;33.50;6.35;;;19.30;61.40;;;;;;4176931;28;20078;-60
2024/04/01 06:15:39;;;;;;;28.05;5.45;;;19.40;62.00;;;;;;4177480;28;20305;-59
2024/04/01 06:17:40;;;;;;;37.55;6.70;;;19.40;62.10;;;;;;4174843;28;20044;-59
2024/04/01 06:19:42;;;;;;;48.13;8.13;;;19.40;61.30;;;;;;4177418;28;20319;-59
2024/04/01 06:21:43;;;;;;;34.90;6.78;;;19.50;61.30;;;;;;4175496;28;20111;-60
2024/04/01 06:23:46;;;;;;;34.63;6.38;;;19.60;60.80;;;;;;4177542;28;20025;-58
2024/04/01 06:25:49;;;;;;;37.45;6.43;;;19.70;60.50;;;;;;4176403;28;20458;-59
2024/04/01 06:27:50;;;;;;;26.98;7.03;;;19.80;60.30;;;;;;4177195;28;20400;-59
2024/04/01 06:29:51;;;;;;;36.47;6.82;;;19.90;59.90;;;;;;4176447;28;20028;-61
2024/04/01 06:31:52;;;;;;;30.70;6.22;;;19.90;59.90;;;;;;4177685;28;20025;-59
2024/04/01 06:33:54;;;;;;;42.10;8.00;;;20.00;60.10;;;;;;4175694;28;20044;-59
2024/04/01 06:36:02;;;;;;;35.95;6.50;;;20.00;60.60;;;;;;4177185;28;20110;-60
2024/04/01 06:38:05;;;;;;;31.10;7.43;;;20.00;60.70;;;;;;4175802;28;20678;-59
2024/04/01 06:40:07;;;;;;;45.53;8.52;;;20.10;61.00;;;;;;4177073;28;20044;-60
2024/04/01 06:42:08;;;;;;;37.60;7.68;;;20.20;60.90;;;;;;4176440;28;20017;-54
2024/04/01 06:44:13;;;;;;;42.47;7.28;;;20.20;60.80;;;;;;4176947;28;20037;-60
2024/04/01 06:46:14;;;;;;;36.42;7.95;;;20.30;60.70;;;;;;4176487;28;20148;-60
2024/04/01 06:48:15;;;;;;;28.00;6.32;;;20.40;60.80;;;;;;4176492;28;20049;-60
2024/04/01 06:50:16;;;;;;;47.15;6.57;;;20.50;60.00;;;;;;4176831;28;20414;-61
2024/04/01 06:52:18;;;;;;;34.50;7.05;;;20.70;59.50;;;;;;4176113;28;20025;-58
2024/04/01 06:54:19;;;;;;;36.78;5.85;;;20.80;59.30;;;;;;4176876;28;20040;-59
2024/04/01 06:56:21;;;;;;;38.72;5.82;;;20.90;58.90;;;;;;4176190;28;20374;-60
2024/04/01 06:58:22;;;;;;;36.08;6.20;;;21.10;58.60;;;;;;4177235;28;20044;-59
2024/04/01 07:00:23;;;;;;;49.38;8.48;;;21.10;58.60;;;;;;4176038;28;20071;-61
2024/04/01 07:02:25;;;;;;;35.35;5.60;;;21.20;58.80;;;;;;4177209;28;20037;-61
2024/04/01 07:04:27;;;;;;;48.40;5.70;;;21.30;58.70;;;;;;4175761;28;20025;-60
2024/04/01 07:06:28;;;;;;;42.35;6.03;;;21.40;58.50;;;;;;4177278;28;20094;-61
2024/04/01 07:08:30;;;;;;;41.58;6.70;;;21.40;58.50;;;;;;4175913;28;20099;-60
2024/04/01 07:10:31;;;;;;;55.50;6.95;;;21.30;58.50;;;;;;4177130;28;20079;-60
2024/04/01 07:12:33;;;;;;;35.08;6.43;;;21.30;58.70;;;;;;4175601;28;20106;-62
2024/04/01 07:14:34;;;;;;;28.63;5.45;;;21.10;58.70;;;;;;4177174;28;20098;-59
2024/04/01 07:16:35;;;;;;;33.53;5.43;;;21.10;58.80;;;;;;4175975;28;20029;-61
2024/04/01 07:18:38;;;;;;;37.90;7.05;;;21.10;58.90;;;;;;4176395;28;20755;-61
2024/04/01 07:20:39;;;;;;;30.70;6.03;;;21.00;59.00;;;;;;4176748;28;20005;-59
2024/04/01 07:22:41;;;;;;;30.08;5.35;;;20.90;59.20;;;;;;4176114;28;20063;-61
2024/04/01 07:24:42;;;;;;;37.03;5.95;;;20.90;59.70;;;;;;4176286;28;20120;-59
2024/04/01 07:26:44;;;;;;;35.55;6.57;;;20.80;59.80;;;;;;4175308;28;20053;-61
2024/04/01 07:28:45;;;;;;;32.50;5.75;;;20.70;60.30;;;;;;4176720;28;20041;-60
2024/04/01 07:30:47;;;;;;;32.50;6.40;;;20.60;61.10;;;;;;4175253;28;20041;-60
2024/04/01 07:32:48;;;;;;;27.80;6.45;;;20.60;61.10;;;;;;4177452;28;20037;-59
2024/04/01 07:34:49;;;;;;;41.58;4.93;;;20.60;60.90;;;;;;4178864;28;20053;-61
2024/04/01 07:36:51;;;;;;;38.70;5.72;;;20.60;60.70;;;;;;4179692;28;20049;-60
2024/04/01 07:38:52;;;;;;;35.75;5.57;;;20.70;60.70;;;;;;4178982;28;20362;-61
2024/04/01 07:40:53;;;;;;;35.17;6.45;;;20.60;60.80;;;;;;4180212;28;20095;-60
2024/04/01 07:42:54;;;;;;;33.47;6.20;;;20.50;60.90;;;;;;4178998;28;20037;-60
2024/04/01 07:44:55;;;;;;;37.08;6.30;;;20.50;61.10;;;;;;4180148;28;20037;-58
2024/04/01 07:46:57;;;;;;;31.25;6.85;;;20.40;61.50;;;;;;4178740;28;20096;-60
2024/04/01 07:48:58;;;;;;;43.50;6.30;;;20.30;62.70;;;;;;4178910;28;20116;-63
2024/04/01 07:51:05;;;;;;;32.05;6.75;;;20.20;63.50;;;;;;4179201;28;20040;-55
2024/04/01 07:53:07;;;;;;;35.75;5.97;;;20.30;63.90;;;;;;4179106;28;20090;-59
2024/04/01 07:55:08;;;;;;;31.25;5.95;;;20.20;63.50;;;;;;4179323;28;20045;-63
2024/04/01 07:57:10;;;;;;;41.22;6.43;;;20.10;63.90;;;;;;4178195;28;20048;-59
2024/04/01 07:59:12;;;;;;;40.60;7.60;;;20.10;64.20;;;;;;4179341;28;20110;-60
2024/04/01 08:01:13;;;;;;;49.20;6.47;;;20.00;64.50;;;;;;4178299;28;20045;-60
2024/04/01 08:03:14;;;;;;;42.15;7.90;;;19.90;64.50;;;;;;4179653;28;20838;-61
2024/04/01 08:05:15;;;;;;;34.30;6.35;;;19.90;64.40;;;;;;4178495;28;20036;-56
2024/04/01 08:07:17;;;;;;;40.90;6.20;;;19.90;64.60;;;;;;4179234;28;20049;-58
2024/04/01 08:09:19;;;;;;;48.10;8.10;;;20.00;64.80;;;;;;4178119;28;20871;-58
2024/04/01 08:11:20;;;;;;;40.00;7.35;;;20.20;64.90;;;;;;4179398;28;20024;-54
2024/04/01 08:13:21;;;;;;;35.15;6.18;;;20.20;65.00;;;;;;4178350;28;20079;-61
2024/04/01 08:15:22;;;;;;;39.63;7.63;;;20.40;65.00;;;;;;4180058;28;20130;-58
2024/04/01 08:17:24;;;;;;;46.17;7.97;;;20.50;64.90;;;;;;4177361;28;20142;-59
2024/04/01 08:19:29;;;;;;;34.92;6.57;;;20.70;64.60;;;;;;4178987;28;20366;-61
2024/04/01 08:21:30;;;;;;;42.83;7.63;;;20.90;64.00;;;;;;4178417;28;20079;-59
2024/04/01 08:23:32;;;;;;;44.45;7.05;;;21.30;63.60;;;;;;4178561;28;20363;-62
2024/04/01 08:25:33;;;;;;;36.33;8.43;;;21.60;63.00;;;;;;4178468;28;20048;-59
2024/04/01 08:27:34;;;;;;;33.40;6.50;;;21.70;62.20;;;;;;4178155;28;20083;-59
2024/04/01 08:29:36;;;;;;;42.40;6.85;;;21.90;62.00;;;;;;4178418;28;20033;-58
2024/04/01 08:31:37;;;;;;;52.13;7.40;;;22.10;62.00;;;;;;4176294;28;20041;-60
2024/04/01 08:33:38;;;;;;;32.97;6.50;;;22.40;61.70;;;;;;4178690;28;20045;-61
2024/04/01 08:35:40;;;;;;;44.40;7.43;;;22.60;61.60;;;;;;4177617;28;20417;-58
2024/04/01 08:37:41;;;;;;;43.47;6.28;;;23.00;61.60;;;;;;4179274;28;20423;-60
2024/04/01 08:39:42;;;;;;;35.08;6.70;;;23.40;61.30;;;;;;4177881;28;20055;-59
2024/04/01 08:41:49;;;;;;;38.00;7.07;;;23.50;60.80;;;;;;4179048;28;20025;-59
2024/04/01 08:43:53;;;;;;;38.03;6.95;;;23.60;60.60;;;;;;4177772;28;20045;-59
2024/04/01 08:45:56;;;;;;;41.03;7.53;;;23.90;60.30;;;;;;4178390;28;20040;-59
2024/04/01 08:48:08;;;;;;;44.35;8.52;;;24.10;59.20;;;;;;4177392;28;20025;-56
2024/04/01 08:50:23;;;;;;;43.80;8.00;;;24.30;58.00;;;;;;4179030;28;20397;-58
2024/04/01 08:52:26;;;;;;;48.15;7.70;;;24.30;56.10;;;;;;4177487;28;20079;-60
2024/04/01 08:54:28;;;;;;;43.40;6.53;;;24.40;55.60;;;;;;4178914;28;20110;-58
2024/04/01 08:56:31;;;;;;;42.72;7.53;;;24.70;55.50;;;;;;4177504;28;20099;-59
2024/04/01 08:58:33;;;;;;;41.58;8.18;;;24.80;55.10;;;;;;4178414;28;20592;-58
2024/04/01 09:00:35;;;;;;;34.28;7.10;;;25.00;55.20;;;;;;4177945;28;20781;-60
2024/04/01 09:02:36;;;;;;;46.00;7.15;;;25.00;54.80;;;;;;4178147;28;20106;-60
2024/04/01 09:04:38;;;;;;;45.55;7.00;;;25.20;54.60;;;;;;4177650;28;20112;-58
2024/04/01 09:06:39;;;;;;;36.63;7.40;;;25.10;54.40;;;;;;4177764;28;20775;-61
2024/04/01 09:08:40;;;;;;;42.75;8.10;;;25.10;54.40;;;;;;4177850;28;20124;-58
2024/04/01 09:10:42;;;;;;;40.22;8.23;;;25.20;54.20;;;;;;4177257;28;20485;-60
2024/04/01 09:12:43;;;;;;;45.33;6.68;;;25.30;54.00;;;;;;4178617;28;20037;-59
2024/04/01 09:14:44;;;;;;;50.83;7.97;;;25.50;53.80;;;;;;4177713;28;20547;-59
2024/04/01 09:16:49;;;;;;;36.40;6.78;;;25.40;53.00;;;;;;4178269;28;20041;-58
2024/04/01 09:18:50;;;;;;;49.83;8.27;;;25.50;52.50;;;;;;4177347;28;20037;-60
2024/04/01 09:20:51;;;;;;;39.80;7.38;;;25.60;52.30;;;;;;4178440;28;20033;-59
2024/04/01 09:22:53;;;;;;;43.70;7.53;;;25.60;52.00;;;;;;4176867;28;20071;-56
2024/04/01 09:24:54;;;;;;;49.80;8.07;;;25.50;51.80;;;;;;4178185;28;20073;-56
2024/04/01 09:26:56;;;;;;;34.38;7.03;;;25.50;52.10;;;;;;4176817;28;20049;-61
2024/04/01 09:28:58;;;;;;;48.15;7.93;;;25.50;51.90;;;;;;4178259;28;20575;-59
2024/04/01 09:30:59;;;;;;;43.30;7.00;;;25.30;51.80;;;;;;4177367;28;20029;-60
2024/04/01 09:33:01;;;;;;;38.63;8.65;;;25.20;52.20;;;;;;4177488;28;20114;-58
2024/04/01 09:35:02;;;;;;;41.72;7.55;;;25.00;52.90;;;;;;4177767;28;20107;-58
2024/04/01 09:37:04;;;;;;;37.67;6.68;;;25.00;53.50;;;;;;4177807;28;20025;-60
2024/04/01 09:39:06;;;;;;;38.97;7.75;;;24.90;54.00;;;;;;4177744;28;20575;-58
2024/04/01 09:41:08;;;;;;;52.72;8.88;;;24.90;54.20;;;;;;4177098;28;20017;-59
2024/04/01 09:43:09;;;;;;;46.00;7.55;;;24.80;53.80;;;;;;4177631;28;20041;-59
2024/04/01 09:45:12;;;;;;;43.33;9.10;;;24.90;53.90;;;;;;4176831;28;20456;-58
2024/04/01 09:47:15;;;;;;;46.38;7.45;;;25.00;54.10;;;;;;4177556;28;20126;-58
2024/04/01 09:49:17;;;;;;;49.17;7.45;;;25.20;53.90;;;;;;4176704;28;20013;-58
2024/04/01 09:51:20;;;;;;;46.85;8.75;;;25.50;54.10;;;;;;4177911;28;20083;-60
2024/04/01 09:53:26;;;;;;;48.55;7.65;;;25.70;53.60;;;;;;4176595;28;20531;-59
2024/04/01 09:55:31;;;;;;;50.05;7.75;;;25.60;53.70;;;;;;4177859;28;20074;-58
2024/04/01 09:58:01;;;;;;;44.90;9.15;;;25.60;53.90;;;;;;4175337;28;20444;-53
2024/04/01 10:00:03;;;;;;;;;;;25.80;52.90;;;;;;4178221;28;20409;-59
2024/04/01 10:02:13;;;;;;;51.58;7.88;;;25.80;52.90;;;;;;4176626;28;19909;-57
2024/04/01 10:04:41;;;;;;;45.05;7.53;;;25.70;53.60;;;;;;4177573;28;20102;-60
2024/04/01 10:07:05;;;;;;;47.45;7.60;;;25.50;53.50;;;;;;4176401;28;20074;-57
2024/04/01 10:09:43;;;;;;;44.28;8.60;;;25.50;53.40;;;;;;4177739;28;20420;-58
2024/04/01 10:12:12;;;;;;;41.45;6.90;;;25.40;53.90;;;;;;4177000;28;20041;-59
2024/04/01 10:14:19;;;;;;;45.80;8.98;;;25.30;53.60;;;;;;4176847;28;20025;-59
2024/04/01 10:16:37;;;;;;;39.83;8.43;;;25.20;54.00;;;;;;4177431;28;20547;-63
2024/04/01 10:19:11;;;;;;;47.08;8.30;;;25.20;53.10;;;;;;4176093;28;20114;-59
2024/04/01 10:21:36;;;;;;;42.53;7.85;;;25.40;53.30;;;;;;4177419;28;20053;-61
2024/04/01 10:23:52;;;;;;;45.50;7.53;;;25.60;53.40;;;;;;4176265;28;20036;-58
2024/04/01 10:26:14;;;;;;;39.92;7.47;;;25.60;53.30;;;;;;4177475;28;20392;-59
2024/04/01 10:28:36;;;;;;;41.63;7.95;;;25.60;53.40;;;;;;4176281;28;20053;-59
2024/04/01 10:31:15;;;;;;;40.20;7.50;;;25.40;53.70;;;;;;4177279;28;20106;-58